sensor_id;sensor_type;location;lat;lon;timestamp;P1;durP1;ratioP1;P2;durP2;ratioP2
76631;SDS011;65526;48.578;-4.520;2022-12-18T00:01:57;23.88;;;10.20;;
76631;SDS011;65526;48.578;-4.520;2022-12-18T00:04:27;21.85;;;9.55;;
76631;SDS011;65526;48.578;-4.520;2022-12-18T00:06:53;20.58;;;9.77;;
76631;SDS011;65526;48.578;-4.520;2022-12-18T00:09:20;23.52;;;10.38;;
76631;SDS011;65526;48.578;-4.520;2022-12-18T00:11:47;21.10;;;9.70;;
76631;SDS011;65526;48.578;-4.520;2022-12-18T00:14:14;22.73;;;10.90;;
76631;SDS011;65526;48.578;-4.520;2022-12-18T00:16:43;22.48;;;10.00;;
76631;SDS011;65526;48.578;-4.520;2022-12-18T00:19:10;26.55;;;9.68;;
76631;SDS011;65526;48.578;-4.520;2022-12-18T00:21:41;19.75;;;9.98;;
76631;SDS011;65526;48.578;-4.520;2022-12-18T00:24:08;18.95;;;9.27;;
76631;SDS011;65526;48.578;-4.520;2022-12-18T00:26:35;25.17;;;10.23;;
76631;SDS011;65526;48.578;-4.520;2022-12-18T00:29:04;25.38;;;10.27;;
76631;SDS011;65526;48.578;-4.520;2022-12-18T00:31:42;23.52;;;10.07;;
76631;SDS011;65526;48.578;-4.520;2022-12-18T00:34:10;20.55;;;9.25;;
76631;SDS011;65526;48.578;-4.520;2022-12-18T00:39:06;23.25;;;9.93;;
76631;SDS011;65526;48.578;-4.520;2022-12-18T00:41:33;22.00;;;10.25;;
76631;SDS011;65526;48.578;-4.520;2022-12-18T00:44:18;24.23;;;10.00;;
76631;SDS011;65526;48.578;-4.520;2022-12-18T00:46:45;23.35;;;10.02;;
76631;SDS011;65526;48.578;-4.520;2022-12-18T00:49:13;22.50;;;10.48;;
76631;SDS011;65526;48.578;-4.520;2022-12-18T00:51:44;27.48;;;11.30;;
76631;SDS011;65526;48.578;-4.520;2022-12-18T00:54:10;26.00;;;10.10;;
76631;SDS011;65526;48.578;-4.520;2022-12-18T00:56:38;25.17;;;11.02;;
76631;SDS011;65526;48.578;-4.520;2022-12-18T00:59:06;30.20;;;11.55;;
76631;SDS011;65526;48.578;-4.520;2022-12-18T01:01:33;23.40;;;10.88;;
76631;SDS011;65526;48.578;-4.520;2022-12-18T01:04:00;26.27;;;11.57;;
76631;SDS011;65526;48.578;-4.520;2022-12-18T01:06:28;22.10;;;10.77;;
76631;SDS011;65526;48.578;-4.520;2022-12-18T01:08:55;26.42;;;11.15;;
76631;SDS011;65526;48.578;-4.520;2022-12-18T01:11:21;25.30;;;11.52;;
76631;SDS011;65526;48.578;-4.520;2022-12-18T01:13:48;22.42;;;10.35;;
76631;SDS011;65526;48.578;-4.520;2022-12-18T01:16:15;24.50;;;10.80;;
76631;SDS011;65526;48.578;-4.520;2022-12-18T01:18:42;24.25;;;11.32;;
76631;SDS011;65526;48.578;-4.520;2022-12-18T01:21:10;26.55;;;10.85;;
76631;SDS011;65526;48.578;-4.520;2022-12-18T01:23:38;23.90;;;10.10;;
76631;SDS011;65526;48.578;-4.520;2022-12-18T01:26:06;28.17;;;11.32;;
76631;SDS011;65526;48.578;-4.520;2022-12-18T01:28:35;27.70;;;11.93;;
76631;SDS011;65526;48.578;-4.520;2022-12-18T01:33:42;24.58;;;11.07;;
76631;SDS011;65526;48.578;-4.520;2022-12-18T01:36:14;30.25;;;12.82;;
76631;SDS011;65526;48.578;-4.520;2022-12-18T01:38:41;26.27;;;11.32;;
76631;SDS011;65526;48.578;-4.520;2022-12-18T01:41:08;26.20;;;11.93;;
76631;SDS011;65526;48.578;-4.520;2022-12-18T01:46:54;23.27;;;11.10;;
76631;SDS011;65526;48.578;-4.520;2022-12-18T01:49:20;31.58;;;12.15;;
76631;SDS011;65526;48.578;-4.520;2022-12-18T01:51:47;29.55;;;12.40;;
76631;SDS011;65526;48.578;-4.520;2022-12-18T01:54:13;31.90;;;11.55;;
76631;SDS011;65526;48.578;-4.520;2022-12-18T01:56:40;24.98;;;10.80;;
76631;SDS011;65526;48.578;-4.520;2022-12-18T01:59:06;32.28;;;12.73;;
76631;SDS011;65526;48.578;-4.520;2022-12-18T02:01:37;23.45;;;11.07;;
76631;SDS011;65526;48.578;-4.520;2022-12-18T02:04:23;27.70;;;12.27;;
76631;SDS011;65526;48.578;-4.520;2022-12-18T02:07:26;29.08;;;10.68;;
76631;SDS011;65526;48.578;-4.520;2022-12-18T02:10:06;26.02;;;11.63;;
76631;SDS011;65526;48.578;-4.520;2022-12-18T02:12:41;27.75;;;12.95;;
76631;SDS011;65526;48.578;-4.520;2022-12-18T02:15:22;28.42;;;13.25;;
76631;SDS011;65526;48.578;-4.520;2022-12-18T02:17:56;28.00;;;12.98;;
76631;SDS011;65526;48.578;-4.520;2022-12-18T02:20:45;28.00;;;11.60;;
76631;SDS011;65526;48.578;-4.520;2022-12-18T02:26:30;32.28;;;12.55;;
76631;SDS011;65526;48.578;-4.520;2022-12-18T02:31:38;24.42;;;11.52;;
76631;SDS011;65526;48.578;-4.520;2022-12-18T02:34:09;31.92;;;14.25;;
76631;SDS011;65526;48.578;-4.520;2022-12-18T02:36:38;25.67;;;11.57;;
76631;SDS011;65526;48.578;-4.520;2022-12-18T02:39:10;32.08;;;13.25;;
76631;SDS011;65526;48.578;-4.520;2022-12-18T02:41:44;30.98;;;12.85;;
76631;SDS011;65526;48.578;-4.520;2022-12-18T02:44:13;27.00;;;12.88;;
76631;SDS011;65526;48.578;-4.520;2022-12-18T02:46:41;31.13;;;12.65;;
76631;SDS011;65526;48.578;-4.520;2022-12-18T02:52:23;28.75;;;12.68;;
76631;SDS011;65526;48.578;-4.520;2022-12-18T02:58:10;28.45;;;11.95;;
76631;SDS011;65526;48.578;-4.520;2022-12-18T03:01:15;32.42;;;12.77;;
76631;SDS011;65526;48.578;-4.520;2022-12-18T03:03:50;31.13;;;12.80;;
76631;SDS011;65526;48.578;-4.520;2022-12-18T03:06:26;32.42;;;12.70;;
76631;SDS011;65526;48.578;-4.520;2022-12-18T03:09:08;32.45;;;12.95;;
76631;SDS011;65526;48.578;-4.520;2022-12-18T03:11:39;26.55;;;11.90;;
76631;SDS011;65526;48.578;-4.520;2022-12-18T03:14:27;29.42;;;12.50;;
76631;SDS011;65526;48.578;-4.520;2022-12-18T03:16:58;27.98;;;12.77;;
76631;SDS011;65526;48.578;-4.520;2022-12-18T03:19:29;29.77;;;13.68;;
76631;SDS011;65526;48.578;-4.520;2022-12-18T03:22:00;26.75;;;13.05;;
76631;SDS011;65526;48.578;-4.520;2022-12-18T03:24:38;30.40;;;12.13;;
76631;SDS011;65526;48.578;-4.520;2022-12-18T03:27:07;24.80;;;11.93;;
76631;SDS011;65526;48.578;-4.520;2022-12-18T03:29:40;29.13;;;12.90;;
76631;SDS011;65526;48.578;-4.520;2022-12-18T03:32:15;28.73;;;13.15;;
76631;SDS011;65526;48.578;-4.520;2022-12-18T03:35:07;26.73;;;12.30;;
76631;SDS011;65526;48.578;-4.520;2022-12-18T03:37:37;31.25;;;12.52;;
76631;SDS011;65526;48.578;-4.520;2022-12-18T03:40:04;29.05;;;12.55;;
76631;SDS011;65526;48.578;-4.520;2022-12-18T03:56:02;28.20;;;12.40;;
76631;SDS011;65526;48.578;-4.520;2022-12-18T03:58:36;32.63;;;12.63;;
76631;SDS011;65526;48.578;-4.520;2022-12-18T04:01:17;29.77;;;13.40;;
76631;SDS011;65526;48.578;-4.520;2022-12-18T04:03:46;37.97;;;12.52;;
76631;SDS011;65526;48.578;-4.520;2022-12-18T04:06:20;30.23;;;13.50;;
76631;SDS011;65526;48.578;-4.520;2022-12-18T04:08:50;32.03;;;12.27;;
76631;SDS011;65526;48.578;-4.520;2022-12-18T04:11:23;30.85;;;12.95;;
76631;SDS011;65526;48.578;-4.520;2022-12-18T04:13:50;29.10;;;12.55;;
76631;SDS011;65526;48.578;-4.520;2022-12-18T04:16:22;31.98;;;13.50;;
76631;SDS011;65526;48.578;-4.520;2022-12-18T04:18:53;26.85;;;11.93;;
76631;SDS011;65526;48.578;-4.520;2022-12-18T04:21:21;35.28;;;14.52;;
76631;SDS011;65526;48.578;-4.520;2022-12-18T04:23:49;37.08;;;13.27;;
76631;SDS011;65526;48.578;-4.520;2022-12-18T04:26:19;32.47;;;13.80;;
76631;SDS011;65526;48.578;-4.520;2022-12-18T04:29:02;31.95;;;12.45;;
76631;SDS011;65526;48.578;-4.520;2022-12-18T04:31:29;31.67;;;13.32;;
76631;SDS011;65526;48.578;-4.520;2022-12-18T04:33:56;37.47;;;14.77;;
76631;SDS011;65526;48.578;-4.520;2022-12-18T04:36:24;34.47;;;13.35;;
76631;SDS011;65526;48.578;-4.520;2022-12-18T04:38:52;32.28;;;13.70;;
76631;SDS011;65526;48.578;-4.520;2022-12-18T04:41:18;35.78;;;14.32;;
76631;SDS011;65526;48.578;-4.520;2022-12-18T04:43:47;27.70;;;13.07;;
76631;SDS011;65526;48.578;-4.520;2022-12-18T04:46:14;32.90;;;13.55;;
76631;SDS011;65526;48.578;-4.520;2022-12-18T04:48:40;34.78;;;13.15;;
76631;SDS011;65526;48.578;-4.520;2022-12-18T04:51:07;28.75;;;12.15;;
76631;SDS011;65526;48.578;-4.520;2022-12-18T04:53:33;35.08;;;12.40;;
76631;SDS011;65526;48.578;-4.520;2022-12-18T04:56:11;34.03;;;12.65;;
76631;SDS011;65526;48.578;-4.520;2022-12-18T04:58:40;26.20;;;11.70;;
76631;SDS011;65526;48.578;-4.520;2022-12-18T05:01:08;33.40;;;12.93;;
76631;SDS011;65526;48.578;-4.520;2022-12-18T05:03:38;32.65;;;13.30;;
76631;SDS011;65526;48.578;-4.520;2022-12-18T05:06:05;31.48;;;13.30;;
76631;SDS011;65526;48.578;-4.520;2022-12-18T05:08:32;36.60;;;14.05;;
76631;SDS011;65526;48.578;-4.520;2022-12-18T05:11:07;32.58;;;13.20;;
76631;SDS011;65526;48.578;-4.520;2022-12-18T05:13:36;32.63;;;13.50;;
76631;SDS011;65526;48.578;-4.520;2022-12-18T05:16:06;27.10;;;12.25;;
76631;SDS011;65526;48.578;-4.520;2022-12-18T05:18:33;32.63;;;13.35;;
76631;SDS011;65526;48.578;-4.520;2022-12-18T05:21:00;30.05;;;13.00;;
76631;SDS011;65526;48.578;-4.520;2022-12-18T05:23:27;30.38;;;11.25;;
76631;SDS011;65526;48.578;-4.520;2022-12-18T05:25:55;32.33;;;13.57;;
76631;SDS011;65526;48.578;-4.520;2022-12-18T05:28:29;30.65;;;13.38;;
76631;SDS011;65526;48.578;-4.520;2022-12-18T05:30:58;30.95;;;12.63;;
76631;SDS011;65526;48.578;-4.520;2022-12-18T05:33:28;30.10;;;13.55;;
76631;SDS011;65526;48.578;-4.520;2022-12-18T05:35:58;30.38;;;12.98;;
76631;SDS011;65526;48.578;-4.520;2022-12-18T05:38:26;24.33;;;11.30;;
76631;SDS011;65526;48.578;-4.520;2022-12-18T05:40:53;32.88;;;12.60;;
76631;SDS011;65526;48.578;-4.520;2022-12-18T05:43:30;31.10;;;12.43;;
76631;SDS011;65526;48.578;-4.520;2022-12-18T05:45:57;26.95;;;11.50;;
76631;SDS011;65526;48.578;-4.520;2022-12-18T05:48:24;28.42;;;12.45;;
76631;SDS011;65526;48.578;-4.520;2022-12-18T05:50:50;31.15;;;12.95;;
76631;SDS011;65526;48.578;-4.520;2022-12-18T05:53:20;28.35;;;12.38;;
76631;SDS011;65526;48.578;-4.520;2022-12-18T05:55:47;23.73;;;10.73;;
76631;SDS011;65526;48.578;-4.520;2022-12-18T05:58:16;31.40;;;13.38;;
76631;SDS011;65526;48.578;-4.520;2022-12-18T06:00:44;27.35;;;11.95;;
76631;SDS011;65526;48.578;-4.520;2022-12-18T06:03:16;30.08;;;12.02;;
76631;SDS011;65526;48.578;-4.520;2022-12-18T06:05:50;31.98;;;12.32;;
76631;SDS011;65526;48.578;-4.520;2022-12-18T06:08:17;31.70;;;12.05;;
76631;SDS011;65526;48.578;-4.520;2022-12-18T06:10:48;29.55;;;12.32;;
76631;SDS011;65526;48.578;-4.520;2022-12-18T06:13:17;32.05;;;11.77;;
76631;SDS011;65526;48.578;-4.520;2022-12-18T06:15:50;25.70;;;12.00;;
76631;SDS011;65526;48.578;-4.520;2022-12-18T06:18:42;33.28;;;12.55;;
76631;SDS011;65526;48.578;-4.520;2022-12-18T06:21:09;30.45;;;12.27;;
76631;SDS011;65526;48.578;-4.520;2022-12-18T06:23:44;28.75;;;11.75;;
76631;SDS011;65526;48.578;-4.520;2022-12-18T06:26:11;24.30;;;11.40;;
76631;SDS011;65526;48.578;-4.520;2022-12-18T06:28:39;28.85;;;12.35;;
76631;SDS011;65526;48.578;-4.520;2022-12-18T06:31:11;27.67;;;11.85;;
76631;SDS011;65526;48.578;-4.520;2022-12-18T06:33:38;27.75;;;11.88;;
76631;SDS011;65526;48.578;-4.520;2022-12-18T06:36:06;28.98;;;12.52;;
76631;SDS011;65526;48.578;-4.520;2022-12-18T06:38:38;30.05;;;12.73;;
76631;SDS011;65526;48.578;-4.520;2022-12-18T06:43:40;23.33;;;10.98;;
76631;SDS011;65526;48.578;-4.520;2022-12-18T06:46:10;26.48;;;11.93;;
76631;SDS011;65526;48.578;-4.520;2022-12-18T06:48:45;26.23;;;10.68;;
76631;SDS011;65526;48.578;-4.520;2022-12-18T06:51:15;26.17;;;11.15;;
76631;SDS011;65526;48.578;-4.520;2022-12-18T06:53:43;23.80;;;10.85;;
76631;SDS011;65526;48.578;-4.520;2022-12-18T06:56:09;24.98;;;10.55;;
76631;SDS011;65526;48.578;-4.520;2022-12-18T06:58:39;27.48;;;11.45;;
76631;SDS011;65526;48.578;-4.520;2022-12-18T07:01:07;23.98;;;11.23;;
76631;SDS011;65526;48.578;-4.520;2022-12-18T07:03:35;24.27;;;10.25;;
76631;SDS011;65526;48.578;-4.520;2022-12-18T07:06:02;28.00;;;10.43;;
76631;SDS011;65526;48.578;-4.520;2022-12-18T07:08:29;30.13;;;9.82;;
76631;SDS011;65526;48.578;-4.520;2022-12-18T07:10:56;26.67;;;11.25;;
76631;SDS011;65526;48.578;-4.520;2022-12-18T07:13:23;22.33;;;9.15;;
76631;SDS011;65526;48.578;-4.520;2022-12-18T07:15:49;25.75;;;8.88;;
76631;SDS011;65526;48.578;-4.520;2022-12-18T07:18:16;27.15;;;10.32;;
76631;SDS011;65526;48.578;-4.520;2022-12-18T07:20:42;19.60;;;8.95;;
76631;SDS011;65526;48.578;-4.520;2022-12-18T07:23:08;22.17;;;9.70;;
76631;SDS011;65526;48.578;-4.520;2022-12-18T07:25:35;23.15;;;9.80;;
76631;SDS011;65526;48.578;-4.520;2022-12-18T07:28:03;20.98;;;8.73;;
76631;SDS011;65526;48.578;-4.520;2022-12-18T07:30:30;22.85;;;9.05;;
76631;SDS011;65526;48.578;-4.520;2022-12-18T07:32:56;23.05;;;9.00;;
76631;SDS011;65526;48.578;-4.520;2022-12-18T07:35:23;17.05;;;7.97;;
76631;SDS011;65526;48.578;-4.520;2022-12-18T07:37:49;12.25;;;7.13;;
76631;SDS011;65526;48.578;-4.520;2022-12-18T07:40:15;16.83;;;7.45;;
76631;SDS011;65526;48.578;-4.520;2022-12-18T07:42:42;18.05;;;8.23;;
76631;SDS011;65526;48.578;-4.520;2022-12-18T07:45:08;17.70;;;7.03;;
76631;SDS011;65526;48.578;-4.520;2022-12-18T07:47:35;16.50;;;7.60;;
76631;SDS011;65526;48.578;-4.520;2022-12-18T07:50:03;16.33;;;7.40;;
76631;SDS011;65526;48.578;-4.520;2022-12-18T07:52:30;21.58;;;7.95;;
76631;SDS011;65526;48.578;-4.520;2022-12-18T07:54:56;16.70;;;7.72;;
76631;SDS011;65526;48.578;-4.520;2022-12-18T07:57:22;19.50;;;7.35;;
76631;SDS011;65526;48.578;-4.520;2022-12-18T07:59:49;15.73;;;6.65;;
76631;SDS011;65526;48.578;-4.520;2022-12-18T08:02:15;13.18;;;5.75;;
76631;SDS011;65526;48.578;-4.520;2022-12-18T08:04:41;12.93;;;5.88;;
76631;SDS011;65526;48.578;-4.520;2022-12-18T08:07:08;23.00;;;6.50;;
76631;SDS011;65526;48.578;-4.520;2022-12-18T08:09:34;16.95;;;5.80;;
76631;SDS011;65526;48.578;-4.520;2022-12-18T08:12:00;12.30;;;5.10;;
76631;SDS011;65526;48.578;-4.520;2022-12-18T08:14:27;12.30;;;5.28;;
76631;SDS011;65526;48.578;-4.520;2022-12-18T08:16:53;12.73;;;5.22;;
76631;SDS011;65526;48.578;-4.520;2022-12-18T08:19:20;8.30;;;4.78;;
76631;SDS011;65526;48.578;-4.520;2022-12-18T08:21:46;10.40;;;4.72;;
76631;SDS011;65526;48.578;-4.520;2022-12-18T08:24:12;12.90;;;4.70;;
76631;SDS011;65526;48.578;-4.520;2022-12-18T08:26:39;11.35;;;3.58;;
76631;SDS011;65526;48.578;-4.520;2022-12-18T08:29:05;7.60;;;3.58;;
76631;SDS011;65526;48.578;-4.520;2022-12-18T08:31:32;8.02;;;4.10;;
76631;SDS011;65526;48.578;-4.520;2022-12-18T08:33:58;9.73;;;3.72;;
76631;SDS011;65526;48.578;-4.520;2022-12-18T08:36:25;10.40;;;4.30;;
76631;SDS011;65526;48.578;-4.520;2022-12-18T08:38:52;10.55;;;4.15;;
76631;SDS011;65526;48.578;-4.520;2022-12-18T08:41:18;9.90;;;4.30;;
76631;SDS011;65526;48.578;-4.520;2022-12-18T08:43:45;12.00;;;4.35;;
76631;SDS011;65526;48.578;-4.520;2022-12-18T08:46:40;14.60;;;4.45;;
76631;SDS011;65526;48.578;-4.520;2022-12-18T08:49:08;11.63;;;4.10;;
76631;SDS011;65526;48.578;-4.520;2022-12-18T08:51:36;13.43;;;4.22;;
76631;SDS011;65526;48.578;-4.520;2022-12-18T08:54:03;8.30;;;4.38;;
76631;SDS011;65526;48.578;-4.520;2022-12-18T08:56:30;9.18;;;3.88;;
76631;SDS011;65526;48.578;-4.520;2022-12-18T08:58:57;11.70;;;3.78;;
76631;SDS011;65526;48.578;-4.520;2022-12-18T09:01:23;9.35;;;3.03;;
76631;SDS011;65526;48.578;-4.520;2022-12-18T09:03:50;7.07;;;3.35;;
76631;SDS011;65526;48.578;-4.520;2022-12-18T09:06:17;7.43;;;3.40;;
76631;SDS011;65526;48.578;-4.520;2022-12-18T09:08:46;8.60;;;3.38;;
76631;SDS011;65526;48.578;-4.520;2022-12-18T09:11:25;17.45;;;3.90;;
76631;SDS011;65526;48.578;-4.520;2022-12-18T09:13:53;10.60;;;3.63;;
76631;SDS011;65526;48.578;-4.520;2022-12-18T09:16:20;10.07;;;3.92;;
76631;SDS011;65526;48.578;-4.520;2022-12-18T09:18:48;11.40;;;4.80;;
76631;SDS011;65526;48.578;-4.520;2022-12-18T09:21:15;9.77;;;2.58;;
76631;SDS011;65526;48.578;-4.520;2022-12-18T09:23:49;11.43;;;3.40;;
76631;SDS011;65526;48.578;-4.520;2022-12-18T09:26:16;8.23;;;2.78;;
76631;SDS011;65526;48.578;-4.520;2022-12-18T09:28:43;10.00;;;2.70;;
76631;SDS011;65526;48.578;-4.520;2022-12-18T09:31:10;11.70;;;3.75;;
76631;SDS011;65526;48.578;-4.520;2022-12-18T09:33:40;9.32;;;2.83;;
76631;SDS011;65526;48.578;-4.520;2022-12-18T09:36:07;7.95;;;2.55;;
76631;SDS011;65526;48.578;-4.520;2022-12-18T09:38:35;11.05;;;3.10;;
76631;SDS011;65526;48.578;-4.520;2022-12-18T09:43:54;8.18;;;2.50;;
76631;SDS011;65526;48.578;-4.520;2022-12-18T09:46:34;14.18;;;3.03;;
76631;SDS011;65526;48.578;-4.520;2022-12-18T09:49:06;8.02;;;2.50;;
76631;SDS011;65526;48.578;-4.520;2022-12-18T09:52:14;8.90;;;2.67;;
76631;SDS011;65526;48.578;-4.520;2022-12-18T09:54:40;7.07;;;2.25;;
76631;SDS011;65526;48.578;-4.520;2022-12-18T09:59:45;11.10;;;3.72;;
76631;SDS011;65526;48.578;-4.520;2022-12-18T10:02:17;12.55;;;2.75;;
76631;SDS011;65526;48.578;-4.520;2022-12-18T10:04:50;11.82;;;2.83;;
76631;SDS011;65526;48.578;-4.520;2022-12-18T10:07:28;15.15;;;2.83;;
76631;SDS011;65526;48.578;-4.520;2022-12-18T10:15:54;12.52;;;2.80;;
76631;SDS011;65526;48.578;-4.520;2022-12-18T10:18:28;9.38;;;2.55;;
76631;SDS011;65526;48.578;-4.520;2022-12-18T10:21:11;10.63;;;2.95;;
76631;SDS011;65526;48.578;-4.520;2022-12-18T10:26:31;12.07;;;3.10;;
76631;SDS011;65526;48.578;-4.520;2022-12-18T10:28:58;11.27;;;2.40;;
76631;SDS011;65526;48.578;-4.520;2022-12-18T10:31:25;19.27;;;2.97;;
76631;SDS011;65526;48.578;-4.520;2022-12-18T10:33:53;8.52;;;2.38;;
76631;SDS011;65526;48.578;-4.520;2022-12-18T10:36:20;13.25;;;2.30;;
76631;SDS011;65526;48.578;-4.520;2022-12-18T10:38:47;13.88;;;2.50;;
76631;SDS011;65526;48.578;-4.520;2022-12-18T10:44:34;9.93;;;2.55;;
76631;SDS011;65526;48.578;-4.520;2022-12-18T10:46:46;9.13;;;2.67;;
76631;SDS011;65526;48.578;-4.520;2022-12-18T10:49:49;15.30;;;2.72;;
76631;SDS011;65526;48.578;-4.520;2022-12-18T10:54:55;12.80;;;2.85;;
76631;SDS011;65526;48.578;-4.520;2022-12-18T10:57:37;12.13;;;2.58;;
76631;SDS011;65526;48.578;-4.520;2022-12-18T11:00:21;13.25;;;2.50;;
76631;SDS011;65526;48.578;-4.520;2022-12-18T11:02:55;12.68;;;2.55;;
76631;SDS011;65526;48.578;-4.520;2022-12-18T11:05:23;14.52;;;2.75;;
76631;SDS011;65526;48.578;-4.520;2022-12-18T11:07:55;13.65;;;2.60;;
76631;SDS011;65526;48.578;-4.520;2022-12-18T11:10:25;17.63;;;2.78;;
76631;SDS011;65526;48.578;-4.520;2022-12-18T11:12:55;11.23;;;2.60;;
76631;SDS011;65526;48.578;-4.520;2022-12-18T11:15:27;11.50;;;2.67;;
76631;SDS011;65526;48.578;-4.520;2022-12-18T11:17:56;11.48;;;2.92;;
76631;SDS011;65526;48.578;-4.520;2022-12-18T11:20:32;15.25;;;2.92;;
76631;SDS011;65526;48.578;-4.520;2022-12-18T11:23:02;12.50;;;2.58;;
76631;SDS011;65526;48.578;-4.520;2022-12-18T11:25:36;9.40;;;1.73;;
76631;SDS011;65526;48.578;-4.520;2022-12-18T11:28:04;10.13;;;2.20;;
76631;SDS011;65526;48.578;-4.520;2022-12-18T11:30:49;14.57;;;2.15;;
76631;SDS011;65526;48.578;-4.520;2022-12-18T11:33:34;10.68;;;2.42;;
76631;SDS011;65526;48.578;-4.520;2022-12-18T11:36:01;12.50;;;3.33;;
76631;SDS011;65526;48.578;-4.520;2022-12-18T11:38:39;17.63;;;3.13;;
76631;SDS011;65526;48.578;-4.520;2022-12-18T11:41:32;12.85;;;2.65;;
76631;SDS011;65526;48.578;-4.520;2022-12-18T11:44:26;11.40;;;2.03;;
76631;SDS011;65526;48.578;-4.520;2022-12-18T11:46:58;11.95;;;2.70;;
76631;SDS011;65526;48.578;-4.520;2022-12-18T11:49:32;12.60;;;2.85;;
76631;SDS011;65526;48.578;-4.520;2022-12-18T11:54:54;13.57;;;2.20;;
76631;SDS011;65526;48.578;-4.520;2022-12-18T12:00:01;10.70;;;2.33;;
76631;SDS011;65526;48.578;-4.520;2022-12-18T12:05:24;11.73;;;2.03;;
76631;SDS011;65526;48.578;-4.520;2022-12-18T12:08:22;6.90;;;2.00;;
76631;SDS011;65526;48.578;-4.520;2022-12-18T12:16:52;9.55;;;2.70;;
76631;SDS011;65526;48.578;-4.520;2022-12-18T12:22:18;13.93;;;2.90;;
76631;SDS011;65526;48.578;-4.520;2022-12-18T12:27:25;14.98;;;3.13;;
76631;SDS011;65526;48.578;-4.520;2022-12-18T12:32:49;6.45;;;2.33;;
76631;SDS011;65526;48.578;-4.520;2022-12-18T12:38:08;15.70;;;3.17;;
76631;SDS011;65526;48.578;-4.520;2022-12-18T12:40:46;15.68;;;2.90;;
76631;SDS011;65526;48.578;-4.520;2022-12-18T12:43:43;12.88;;;2.85;;
76631;SDS011;65526;48.578;-4.520;2022-12-18T12:48:48;10.02;;;2.35;;
76631;SDS011;65526;48.578;-4.520;2022-12-18T12:51:22;10.68;;;2.83;;
76631;SDS011;65526;48.578;-4.520;2022-12-18T12:53:52;9.27;;;2.80;;
76631;SDS011;65526;48.578;-4.520;2022-12-18T12:56:20;15.52;;;2.85;;
76631;SDS011;65526;48.578;-4.520;2022-12-18T13:01:28;12.45;;;3.08;;
76631;SDS011;65526;48.578;-4.520;2022-12-18T13:04:19;14.68;;;3.45;;
76631;SDS011;65526;48.578;-4.520;2022-12-18T13:07:06;14.50;;;3.45;;
76631;SDS011;65526;48.578;-4.520;2022-12-18T13:12:59;11.10;;;2.70;;
76631;SDS011;65526;48.578;-4.520;2022-12-18T13:18:15;11.68;;;3.08;;
76631;SDS011;65526;48.578;-4.520;2022-12-18T13:20:44;12.38;;;3.63;;
76631;SDS011;65526;48.578;-4.520;2022-12-18T13:25:50;17.73;;;2.67;;
76631;SDS011;65526;48.578;-4.520;2022-12-18T13:29:04;15.50;;;3.15;;
76631;SDS011;65526;48.578;-4.520;2022-12-18T13:31:14;17.55;;;2.63;;
76631;SDS011;65526;48.578;-4.520;2022-12-18T13:34:17;11.50;;;2.45;;
76631;SDS011;65526;48.578;-4.520;2022-12-18T13:36:47;17.60;;;3.17;;
76631;SDS011;65526;48.578;-4.520;2022-12-18T13:41:41;9.30;;;2.10;;
76631;SDS011;65526;48.578;-4.520;2022-12-18T13:46:56;11.40;;;2.30;;
76631;SDS011;65526;48.578;-4.520;2022-12-18T13:51:53;16.67;;;2.92;;
76631;SDS011;65526;48.578;-4.520;2022-12-18T13:59:58;9.82;;;2.05;;
76631;SDS011;65526;48.578;-4.520;2022-12-18T14:02:44;12.43;;;2.65;;
76631;SDS011;65526;48.578;-4.520;2022-12-18T14:05:27;13.60;;;2.58;;
76631;SDS011;65526;48.578;-4.520;2022-12-18T14:08:08;15.68;;;2.45;;
76631;SDS011;65526;48.578;-4.520;2022-12-18T14:10:42;11.65;;;1.88;;
76631;SDS011;65526;48.578;-4.520;2022-12-18T14:13:15;12.02;;;1.92;;
76631;SDS011;65526;48.578;-4.520;2022-12-18T14:15:47;13.00;;;2.38;;
76631;SDS011;65526;48.578;-4.520;2022-12-18T14:20:57;11.00;;;2.38;;
76631;SDS011;65526;48.578;-4.520;2022-12-18T14:26:02;8.93;;;2.22;;
76631;SDS011;65526;48.578;-4.520;2022-12-18T14:28:45;12.40;;;2.10;;
76631;SDS011;65526;48.578;-4.520;2022-12-18T14:31:19;11.23;;;2.20;;
76631;SDS011;65526;48.578;-4.520;2022-12-18T14:33:52;12.63;;;1.95;;
76631;SDS011;65526;48.578;-4.520;2022-12-18T14:36:23;10.68;;;2.58;;
76631;SDS011;65526;48.578;-4.520;2022-12-18T14:38:52;17.23;;;2.20;;
76631;SDS011;65526;48.578;-4.520;2022-12-18T14:41:21;13.20;;;2.53;;
76631;SDS011;65526;48.578;-4.520;2022-12-18T14:43:48;11.68;;;1.80;;
76631;SDS011;65526;48.578;-4.520;2022-12-18T14:49:04;7.60;;;1.67;;
76631;SDS011;65526;48.578;-4.520;2022-12-18T14:51:49;14.63;;;2.28;;
76631;SDS011;65526;48.578;-4.520;2022-12-18T14:54:18;10.90;;;1.92;;
76631;SDS011;65526;48.578;-4.520;2022-12-18T14:56:46;11.90;;;2.78;;
76631;SDS011;65526;48.578;-4.520;2022-12-18T14:59:16;11.85;;;3.17;;
76631;SDS011;65526;48.578;-4.520;2022-12-18T15:01:50;12.45;;;2.92;;
76631;SDS011;65526;48.578;-4.520;2022-12-18T15:04:23;15.82;;;2.50;;
76631;SDS011;65526;48.578;-4.520;2022-12-18T15:07:01;10.02;;;2.60;;
76631;SDS011;65526;48.578;-4.520;2022-12-18T15:10:03;17.25;;;3.00;;
76631;SDS011;65526;48.578;-4.520;2022-12-18T15:13:06;11.75;;;2.40;;
76631;SDS011;65526;48.578;-4.520;2022-12-18T15:20:44;17.00;;;3.17;;
76631;SDS011;65526;48.578;-4.520;2022-12-18T15:23:15;13.50;;;3.20;;
76631;SDS011;65526;48.578;-4.520;2022-12-18T15:25:46;13.25;;;2.50;;
76631;SDS011;65526;48.578;-4.520;2022-12-18T15:28:18;10.75;;;1.95;;
76631;SDS011;65526;48.578;-4.520;2022-12-18T15:33:38;18.73;;;2.58;;
76631;SDS011;65526;48.578;-4.520;2022-12-18T15:36:09;17.13;;;1.98;;
76631;SDS011;65526;48.578;-4.520;2022-12-18T15:38:38;9.98;;;1.83;;
76631;SDS011;65526;48.578;-4.520;2022-12-18T15:41:12;13.15;;;2.97;;
76631;SDS011;65526;48.578;-4.520;2022-12-18T15:43:44;16.02;;;2.78;;
76631;SDS011;65526;48.578;-4.520;2022-12-18T15:46:14;16.10;;;2.88;;
76631;SDS011;65526;48.578;-4.520;2022-12-18T15:48:50;15.88;;;2.42;;
76631;SDS011;65526;48.578;-4.520;2022-12-18T15:51:19;22.42;;;3.33;;
76631;SDS011;65526;48.578;-4.520;2022-12-18T15:53:52;17.83;;;2.70;;
76631;SDS011;65526;48.578;-4.520;2022-12-18T15:56:20;25.55;;;3.05;;
76631;SDS011;65526;48.578;-4.520;2022-12-18T15:59:13;21.35;;;2.85;;
76631;SDS011;65526;48.578;-4.520;2022-12-18T16:01:41;19.67;;;2.83;;
76631;SDS011;65526;48.578;-4.520;2022-12-18T16:04:14;21.13;;;2.83;;
76631;SDS011;65526;48.578;-4.520;2022-12-18T16:06:42;17.90;;;3.05;;
76631;SDS011;65526;48.578;-4.520;2022-12-18T16:09:08;12.82;;;2.60;;
76631;SDS011;65526;48.578;-4.520;2022-12-18T16:11:36;26.00;;;3.63;;
76631;SDS011;65526;48.578;-4.520;2022-12-18T16:14:10;21.00;;;3.33;;
76631;SDS011;65526;48.578;-4.520;2022-12-18T16:16:44;23.27;;;3.65;;
76631;SDS011;65526;48.578;-4.520;2022-12-18T16:19:11;24.75;;;3.40;;
76631;SDS011;65526;48.578;-4.520;2022-12-18T16:21:38;27.65;;;3.08;;
76631;SDS011;65526;48.578;-4.520;2022-12-18T16:24:04;19.40;;;3.70;;
76631;SDS011;65526;48.578;-4.520;2022-12-18T16:26:31;23.48;;;3.58;;
76631;SDS011;65526;48.578;-4.520;2022-12-18T16:28:57;18.65;;;4.60;;
76631;SDS011;65526;48.578;-4.520;2022-12-18T16:31:24;16.50;;;3.40;;
76631;SDS011;65526;48.578;-4.520;2022-12-18T16:34:08;25.02;;;3.28;;
76631;SDS011;65526;48.578;-4.520;2022-12-18T16:36:36;26.92;;;4.43;;
76631;SDS011;65526;48.578;-4.520;2022-12-18T16:39:05;21.38;;;3.78;;
76631;SDS011;65526;48.578;-4.520;2022-12-18T16:41:31;20.85;;;3.33;;
76631;SDS011;65526;48.578;-4.520;2022-12-18T16:43:58;30.85;;;3.95;;
76631;SDS011;65526;48.578;-4.520;2022-12-18T16:46:25;29.35;;;5.13;;
76631;SDS011;65526;48.578;-4.520;2022-12-18T16:48:52;24.08;;;4.28;;